createdAt,value
2023-01-10T03:41:19.998Z,100158.41
2023-01-10T03:55:55.122Z,100181.75
2023-01-10T05:54:10.747Z,100414.06
2023-01-10T05:59:39.216Z,100426.38
2023-01-10T06:02:06.029Z,100429.22
2023-01-10T06:04:35.143Z,100424.03
2023-01-10T06:07:01.958Z,100437.97
2023-01-10T06:09:28.636Z,100444.25
2023-01-10T06:11:55.925Z,100452.81
2023-01-10T06:14:26.927Z,100453.97
2023-01-10T06:16:53.677Z,100461.81
2023-01-10T06:19:20.414Z,100467.00
2023-01-10T06:21:47.122Z,100474.78
2023-01-10T06:24:13.844Z,100470.59
2023-01-10T06:26:44.145Z,100471.50
2023-01-10T06:29:47.458Z,100478.56
2023-01-10T06:32:14.847Z,100475.22
2023-01-10T06:34:49.208Z,100497.09
2023-01-10T06:37:24.848Z,100498.09
2023-01-10T06:40:12.164Z,100505.31
2023-01-10T06:43:43.007Z,100504.44
2023-01-10T06:46:13.461Z,100509.38
2023-01-10T06:48:53.909Z,100524.19
2023-01-10T06:51:45.006Z,100526.84
2023-01-10T06:54:21.179Z,100530.53
2023-01-10T06:56:49.061Z,100530.63
2023-01-10T06:59:15.842Z,100542.16
2023-01-10T07:01:42.662Z,100547.53
2023-01-10T07:04:09.530Z,100550.00
2023-01-10T07:06:37.655Z,100556.69
2023-01-10T07:09:05.932Z,100561.34
2023-01-10T07:11:38.819Z,100564.75
2023-01-10T07:14:09.903Z,100572.09
2023-01-10T07:16:36.718Z,100572.47
2023-01-10T07:19:03.559Z,100574.25
2023-01-10T07:21:30.296Z,100579.59
2023-01-10T07:23:57.015Z,100579.75
2023-01-10T07:26:24.467Z,100598.97
2023-01-10T07:28:51.519Z,100597.13
2023-01-10T07:31:20.198Z,100598.72
2023-01-10T07:33:47.058Z,100610.91
2023-01-10T07:36:14.150Z,100618.97
2023-01-10T07:38:40.998Z,100613.41
2023-01-10T07:41:07.823Z,100627.31
2023-01-10T07:43:34.718Z,100628.16
2023-01-10T07:46:02.657Z,100635.22
2023-01-10T07:48:32.182Z,100639.69
2023-01-10T07:51:00.739Z,100643.22
2023-01-10T07:53:28.866Z,100643.91
2023-01-10T07:55:59.944Z,100644.06
2023-01-10T07:58:27.171Z,100661.63
2023-01-10T08:01:00.511Z,100665.09
2023-01-10T08:08:35.270Z,100670.44
2023-01-10T08:11:55.138Z,100664.91
2023-01-10T08:14:30.041Z,100669.84
2023-01-10T08:17:05.232Z,100673.31
2023-01-10T08:19:33.946Z,100678.59
2023-01-10T08:22:11.127Z,100683.97
2023-01-10T08:57:25.946Z,100723.31
2023-01-10T09:00:04.170Z,100721.34
2023-01-10T09:02:42.335Z,100719.56
2023-01-10T09:05:26.405Z,100741.69
2023-01-10T09:08:29.145Z,100748.31
2023-01-10T09:18:09.477Z,100752.09
2023-01-10T09:21:08.635Z,100758.38
2023-01-10T09:28:24.945Z,100764.78
2023-01-10T09:31:41.125Z,100757.78
2023-01-10T09:35:00.041Z,100762.25
2023-01-10T09:37:27.000Z,100764.91
2023-01-10T09:40:23.092Z,100776.13
2023-01-10T09:43:11.018Z,100792.69
2023-01-10T09:46:19.481Z,100783.03
2023-01-10T09:49:12.833Z,100789.84
2023-01-10T09:52:01.545Z,100781.13
2023-01-10T09:58:10.592Z,100788.66
2023-01-10T10:01:05.385Z,100784.09
2023-01-10T10:04:05.493Z,100791.06
2023-01-10T10:07:20.580Z,100797.28
2023-01-10T10:10:27.441Z,100802.16
2023-01-10T10:14:00.941Z,100800.63
2023-01-10T10:17:01.006Z,100807.38
2023-01-10T10:19:40.394Z,100796.81
2023-01-10T10:25:41.541Z,100799.19
2023-01-10T10:28:55.265Z,100808.53
2023-01-10T10:36:16.871Z,100798.81
2023-01-10T10:42:03.562Z,100834.22
2023-01-10T10:44:36.499Z,100828.09
2023-01-10T10:47:03.440Z,100833.13
2023-01-10T10:49:47.692Z,100839.97
2023-01-10T10:52:20.351Z,100837.91
2023-01-10T10:54:47.901Z,100832.03
2023-01-10T10:57:14.833Z,100828.19
2023-01-10T10:59:43.663Z,100830.56
2023-01-10T11:02:22.368Z,100831.56
2023-01-10T11:04:50.393Z,100835.97
2023-01-10T11:07:18.605Z,100850.88
2023-01-10T11:09:53.723Z,100850.31
2023-01-10T11:12:28.766Z,100860.72
2023-01-10T11:14:55.697Z,100847.59
2023-01-10T11:17:31.358Z,100858.16
2023-01-10T11:20:02.077Z,100864.25
2023-01-10T11:22:31.722Z,100845.59
2023-01-10T11:25:00.695Z,100857.81
2023-01-10T11:27:30.172Z,100839.59
2023-01-10T11:30:00.315Z,100847.97
2023-01-10T11:32:33.126Z,100842.28
2023-01-10T11:35:03.093Z,100851.78
2023-01-10T11:37:34.543Z,100851.66
2023-01-10T11:40:19.687Z,100860.16
2023-01-10T11:42:47.629Z,100861.25
2023-01-10T11:45:17.382Z,100849.63
2023-01-10T11:47:47.284Z,100849.22
2023-01-10T11:50:23.860Z,100854.81
2023-01-10T11:52:51.113Z,100866.28
2023-01-10T11:55:20.922Z,100869.00
2023-01-10T11:57:56.078Z,100876.28
2023-01-10T12:00:23.496Z,100881.88
2023-01-10T12:02:52.673Z,100878.75
2023-01-10T12:05:21.762Z,100880.66
2023-01-10T12:08:06.492Z,100880.91
2023-01-10T12:10:37.538Z,100876.81
2023-01-10T12:13:14.896Z,100878.81
2023-01-10T12:15:42.052Z,100873.47
2023-01-10T12:18:11.010Z,100866.09
2023-01-10T12:21:06.917Z,100878.59
2023-01-10T12:23:38.557Z,100873.88
2023-01-10T12:26:11.833Z,100866.09
2023-01-10T12:28:43.067Z,100864.22
2023-01-10T12:31:15.914Z,100859.75
2023-01-10T12:34:13.599Z,100874.09
2023-01-10T12:37:05.262Z,100874.13
2023-01-10T12:44:11.521Z,100884.91
2023-01-10T12:47:53.965Z,100882.97
2023-01-10T12:50:55.125Z,100890.00
2023-01-10T12:53:45.071Z,100899.59
2023-01-10T12:56:25.657Z,100896.56
2023-01-10T12:59:05.165Z,100896.69
2023-01-10T13:02:06.301Z,100888.84
2023-01-10T13:04:37.105Z,100913.91
2023-01-10T13:07:11.697Z,100904.38
2023-01-10T13:09:48.070Z,100906.03
2023-01-10T13:12:37.185Z,100906.88
2023-01-10T13:15:25.493Z,100911.97
2023-01-10T13:18:15.993Z,100914.91
2023-01-10T13:20:52.197Z,100924.84
2023-01-10T13:23:41.388Z,100940.13
2023-01-10T13:26:55.078Z,100927.25
2023-01-10T13:29:49.611Z,100932.56
2023-01-10T13:32:35.909Z,100941.13
2023-01-10T13:35:42.740Z,100935.06
2023-01-10T13:38:27.622Z,100929.25
2023-01-10T13:41:02.650Z,100938.75
2023-01-10T13:43:41.500Z,100936.06
2023-01-10T13:46:16.456Z,100938.91
2023-01-10T13:49:09.004Z,100935.50
2023-01-10T13:51:36.435Z,100937.28
2023-01-10T13:54:16.603Z,100949.00
2023-01-10T13:56:44.700Z,100958.13
2023-01-10T13:59:49.884Z,100963.63
2023-01-10T14:02:31.764Z,100949.41
2023-01-10T14:05:11.178Z,100958.09
2023-01-10T14:07:51.733Z,100949.34
2023-01-10T14:10:24.667Z,100946.13
2023-01-10T14:13:09.559Z,100944.50
2023-01-10T14:15:46.987Z,100947.22
2023-01-10T14:18:40.122Z,100941.63
2023-01-10T14:21:09.640Z,100956.50
2023-01-10T14:23:44.149Z,100959.50
2023-01-10T14:26:19.973Z,100952.09
2023-01-10T14:28:54.858Z,100955.72
2023-01-10T14:31:34.719Z,100955.44
2023-01-10T14:34:24.294Z,100955.59
2023-01-10T14:36:58.899Z,100959.22
2023-01-10T14:39:26.791Z,100962.88
2023-01-10T14:41:57.255Z,100956.72
2023-01-10T14:44:36.238Z,100954.94
2023-01-10T14:47:04.603Z,100954.78
2023-01-10T14:49:35.401Z,100950.41
2023-01-10T14:52:12.891Z,100957.13
2023-01-10T14:54:39.805Z,100948.78
2023-01-10T14:57:17.262Z,100951.50
2023-01-10T14:59:44.010Z,100953.25
2023-01-10T15:02:24.082Z,100958.34
2023-01-10T15:05:07.894Z,100956.69
2023-01-10T15:07:35.825Z,100974.28
2023-01-10T15:10:21.845Z,100966.47
2023-01-10T15:12:52.396Z,100969.91
2023-01-10T15:15:20.678Z,100958.63
2023-01-10T15:17:49.853Z,100957.19
2023-01-10T15:20:18.132Z,100965.41
2023-01-10T15:22:51.827Z,100968.75
2023-01-10T15:25:18.604Z,100957.38
2023-01-10T15:27:47.494Z,100959.09
2023-01-10T15:30:29.581Z,100962.59
2023-01-10T15:33:01.176Z,100963.63
2023-01-10T15:35:36.076Z,100964.75
2023-01-10T15:38:21.070Z,100958.22
2023-01-10T15:40:59.180Z,100966.00
2023-01-10T15:43:36.745Z,100970.66
2023-01-10T15:46:09.039Z,100968.94
2023-01-10T15:48:36.723Z,100964.50
2023-01-10T15:51:28.561Z,100972.56
2023-01-10T15:54:28.700Z,100966.63
2023-01-10T15:57:01.139Z,100969.59
2023-01-10T15:59:34.031Z,100989.72
2023-01-10T16:16:16.581Z,100981.75
2023-01-10T16:18:43.499Z,100974.63
2023-01-10T16:21:11.693Z,100970.31
2023-01-10T16:23:44.185Z,100966.88
2023-01-10T16:26:10.951Z,100970.41
2023-01-10T16:28:38.203Z,100972.81
2023-01-10T16:31:07.044Z,100972.75
2023-01-10T16:33:34.320Z,100958.78
2023-01-10T16:36:01.170Z,100977.06
2023-01-10T16:38:29.416Z,100962.19
2023-01-10T16:41:21.234Z,100964.78
2023-01-10T16:43:51.998Z,100964.66
2023-01-10T16:46:18.756Z,100968.22
2023-01-10T16:48:50.303Z,100957.50
2023-01-10T16:51:21.931Z,100962.84
2023-01-10T16:54:05.499Z,100956.88
2023-01-10T16:56:33.778Z,100961.09
2023-01-10T16:59:01.400Z,100966.38
2023-01-10T17:01:37.718Z,100974.22
2023-01-10T17:04:15.818Z,100976.72
2023-01-10T17:06:43.006Z,100961.94
2023-01-10T17:09:36.150Z,100965.56
2023-01-10T17:12:06.905Z,100962.66
2023-01-10T17:14:35.592Z,100963.66
2023-01-10T17:17:05.665Z,100963.66
2023-01-10T17:19:32.478Z,100960.81
2023-01-10T17:22:00.480Z,100957.09
2023-01-10T17:24:29.744Z,100966.75
2023-01-10T17:27:03.677Z,100965.91
2023-01-10T17:30:01.278Z,100953.88
2023-01-10T17:32:29.975Z,100958.09
2023-01-10T17:34:56.720Z,100958.09
2023-01-10T17:37:23.459Z,100967.03
2023-01-10T17:39:50.137Z,100968.53
2023-01-10T17:42:20.069Z,100964.97
2023-01-10T17:44:46.778Z,100973.75
2023-01-10T17:47:13.856Z,100974.50
2023-01-10T17:49:42.092Z,100971.97
2023-01-10T17:52:09.046Z,100963.25
2023-01-10T17:54:36.641Z,100969.19
2023-01-10T17:57:04.500Z,100964.84
2023-01-10T17:59:31.451Z,100969.38
2023-01-10T18:01:58.576Z,100968.63
2023-01-10T18:04:25.547Z,100968.66
2023-01-10T18:06:52.386Z,100973.25
2023-01-10T18:09:22.205Z,100974.00
2023-01-10T18:11:51.753Z,100967.81
2023-01-10T18:14:36.932Z,100960.09
2023-01-10T18:17:13.369Z,100978.84
2023-01-10T18:19:41.324Z,100966.47
2023-01-10T18:22:27.549Z,100956.91
2023-01-10T18:24:56.065Z,100961.59
2023-01-10T18:27:26.908Z,100961.41
2023-01-10T18:29:53.711Z,100964.91
2023-01-10T18:32:22.058Z,100965.81
2023-01-10T18:34:48.938Z,100960.69
2023-01-10T18:37:16.918Z,100958.94
2023-01-10T18:39:43.866Z,100947.78
2023-01-10T18:42:11.433Z,100952.22
2023-01-10T18:44:38.682Z,100959.09
2023-01-10T18:47:09.215Z,100948.00
2023-01-10T18:49:35.934Z,100948.13
2023-01-10T18:52:02.638Z,100950.75
2023-01-10T18:54:29.359Z,100948.91
2023-01-10T18:56:56.330Z,100944.31
2023-01-10T18:59:23.249Z,100934.91
2023-01-10T19:01:50.161Z,100942.13
2023-01-10T19:04:18.656Z,100938.09
2023-01-10T19:06:45.906Z,100943.44
2023-01-10T19:09:12.686Z,100938.22
2023-01-10T19:11:39.429Z,100939.28
2023-01-10T19:14:06.515Z,100931.44
2023-01-10T19:16:33.282Z,100933.44
2023-01-10T19:19:05.935Z,100936.06
2023-01-10T19:21:33.914Z,100932.66
2023-01-10T19:24:03.966Z,100936.16
2023-01-10T19:26:31.034Z,100933.44
2023-01-10T19:28:57.930Z,100930.16
2023-01-10T19:31:27.137Z,100927.75
2023-01-10T19:33:54.331Z,100916.38
2023-01-10T19:36:24.126Z,100922.53
2023-01-10T19:38:58.377Z,100915.53
2023-01-10T19:41:26.750Z,100912.91
2023-01-10T19:44:01.580Z,100906.81
2023-01-10T19:46:31.668Z,100910.41
2023-01-10T19:48:58.889Z,100909.59
2023-01-10T19:51:25.637Z,100914.94
2023-01-10T19:53:52.277Z,100913.88
2023-01-10T19:56:23.122Z,100908.06
2023-01-10T19:58:50.284Z,100905.06
2023-01-10T20:01:20.064Z,100901.16
2023-01-10T20:03:47.948Z,100902.22
2023-01-10T20:06:18.042Z,100898.25
2023-01-10T20:08:45.621Z,100885.16
2023-01-10T20:11:12.875Z,100894.28
2023-01-10T20:13:45.139Z,100885.47
2023-01-10T20:16:13.498Z,100889.78
2023-01-10T20:18:41.126Z,100886.38
2023-01-10T20:21:10.221Z,100881.31
2023-01-10T20:23:38.251Z,100877.03
2023-01-10T20:26:12.496Z,100878.22
2023-01-10T20:28:40.017Z,100881.16
2023-01-10T20:31:16.038Z,100873.09
2023-01-10T20:33:45.548Z,100867.91
2023-01-10T20:36:15.606Z,100867.84
2023-01-10T20:38:42.329Z,100855.63
2023-01-10T20:41:14.486Z,100869.00
2023-01-10T20:43:41.680Z,100854.34
2023-01-10T23:16:32.088Z,100714.84
2023-01-10T23:20:42.269Z,100716.75
2023-01-10T23:59:32.035Z,100648.44
